createdAt,value
2023-02-21T00:00:53.884Z,1.05
2023-02-21T00:03:39.276Z,0.88
2023-02-21T00:06:27.407Z,1.08
2023-02-21T00:09:12.696Z,0.80
2023-02-21T00:12:04.136Z,0.80
2023-02-21T00:14:49.601Z,0.88
2023-02-21T00:17:35.077Z,0.68
2023-02-21T00:20:20.427Z,0.80
2023-02-21T00:23:05.762Z,0.80
2023-02-21T00:25:50.969Z,0.90
2023-02-21T00:28:36.539Z,0.80
2023-02-21T00:31:23.331Z,0.68
2023-02-21T00:34:10.801Z,0.73
2023-02-21T00:36:56.396Z,0.90
2023-02-21T00:39:41.603Z,0.73
2023-02-21T00:42:27.063Z,0.93
2023-02-21T00:45:12.520Z,0.80
2023-02-21T00:47:57.818Z,1.20
2023-02-21T00:50:43.288Z,0.80
2023-02-21T00:53:28.563Z,1.00
2023-02-21T00:56:14.082Z,1.13
2023-02-21T00:58:59.469Z,1.05
2023-02-21T01:01:44.791Z,0.93
2023-02-21T01:04:30.404Z,1.10
2023-02-21T01:07:15.781Z,1.10
2023-02-21T01:10:01.686Z,1.20
2023-02-21T01:12:47.618Z,1.10
2023-02-21T01:15:34.548Z,1.00
2023-02-21T01:18:20.026Z,0.82
2023-02-21T01:21:05.854Z,1.40
2023-02-21T01:23:52.645Z,1.10
2023-02-21T01:26:38.152Z,1.02
2023-02-21T01:29:23.527Z,0.90
2023-02-21T01:32:09.569Z,1.40
2023-02-21T01:34:57.780Z,0.93
2023-02-21T01:37:43.099Z,1.20
2023-02-21T01:40:34.003Z,0.85
2023-02-21T01:43:20.541Z,0.90
2023-02-21T01:46:08.569Z,1.10
2023-02-21T01:48:55.388Z,1.08
2023-02-21T01:51:45.688Z,1.30
2023-02-21T01:54:32.104Z,0.93
2023-02-21T01:57:21.201Z,1.08
2023-02-21T02:00:07.960Z,1.50
2023-02-21T02:03:12.089Z,1.48
2023-02-21T02:05:59.138Z,1.20
2023-02-21T02:08:48.232Z,1.33
2023-02-21T02:11:45.628Z,1.27
2023-02-21T02:14:28.257Z,1.20
2023-02-21T02:17:09.877Z,1.17
2023-02-21T02:20:00.992Z,1.65
2023-02-21T02:22:49.206Z,1.30
2023-02-21T02:25:44.357Z,1.40
2023-02-21T02:28:49.669Z,1.27
2023-02-21T02:31:45.912Z,1.15
2023-02-21T02:34:42.350Z,1.27
2023-02-21T02:37:31.945Z,1.33
2023-02-21T02:40:14.001Z,1.30
2023-02-21T02:43:01.361Z,1.42
2023-02-21T02:45:31.779Z,1.85
2023-02-21T02:48:06.729Z,1.27
2023-02-21T02:50:34.436Z,1.20
2023-02-21T02:53:04.233Z,1.23
2023-02-21T02:55:48.887Z,1.20
2023-02-21T02:58:17.500Z,1.20
2023-02-21T03:00:53.799Z,1.10
2023-02-21T03:03:39.882Z,1.20
2023-02-21T03:06:18.780Z,1.30
2023-02-21T03:08:56.846Z,1.33
2023-02-21T03:11:26.066Z,1.77
2023-02-21T03:14:10.490Z,1.20
2023-02-21T03:16:48.343Z,1.50
2023-02-21T03:19:24.528Z,1.70
2023-02-21T03:21:56.292Z,1.40
2023-02-21T03:24:26.732Z,1.38
2023-02-21T03:26:57.866Z,1.60
2023-02-21T03:29:43.818Z,1.50
2023-02-21T03:32:32.502Z,1.30
2023-02-21T03:35:02.328Z,1.40
2023-02-21T03:37:41.439Z,1.30
2023-02-21T03:40:18.054Z,1.30
2023-02-21T03:42:48.232Z,1.50
2023-02-21T03:45:17.661Z,1.33
2023-02-21T03:47:51.058Z,1.20
2023-02-21T03:50:18.771Z,1.52
2023-02-21T03:52:45.817Z,1.33
2023-02-21T03:55:13.046Z,1.55
2023-02-21T03:57:40.056Z,1.50
2023-02-21T04:00:08.434Z,1.38
2023-02-21T04:02:42.382Z,1.30
2023-02-21T04:07:39.424Z,1.20
2023-02-21T04:10:06.779Z,1.20
2023-02-21T04:12:40.377Z,1.45
2023-02-21T04:15:08.614Z,1.20
2023-02-21T04:17:35.859Z,2.13
2023-02-21T04:20:04.873Z,1.83
2023-02-21T04:22:35.499Z,1.33
2023-02-21T04:25:02.613Z,1.63
2023-02-21T04:27:35.223Z,2.45
2023-02-21T04:30:02.166Z,1.98
2023-02-21T04:32:29.831Z,1.52
2023-02-21T04:34:57.533Z,1.52
2023-02-21T04:37:24.433Z,1.15
2023-02-21T04:39:52.199Z,2.17
2023-02-21T04:42:19.215Z,2.28
2023-02-21T04:44:59.351Z,1.42
2023-02-21T04:47:27.696Z,1.25
2023-02-21T04:49:54.444Z,1.30
2023-02-21T04:52:21.301Z,1.38
2023-02-21T04:54:48.806Z,1.30
2023-02-21T04:57:16.747Z,1.25
2023-02-21T04:59:43.830Z,1.30
2023-02-21T05:02:11.832Z,1.20
2023-02-21T05:04:40.220Z,1.15
2023-02-21T05:07:07.519Z,1.10
2023-02-21T05:09:34.586Z,1.10
2023-02-21T05:12:01.761Z,1.27
2023-02-21T05:14:28.692Z,1.23
2023-02-21T05:16:55.564Z,1.30
2023-02-21T05:19:27.808Z,1.27
2023-02-21T05:22:00.421Z,2.67
2023-02-21T05:24:28.917Z,1.40
2023-02-21T05:26:57.091Z,1.52
2023-02-21T05:29:24.483Z,1.20
2023-02-21T05:31:51.472Z,1.10
2023-02-21T05:34:19.638Z,1.10
2023-02-21T05:36:46.800Z,1.30
2023-02-21T05:39:13.750Z,1.20
2023-02-21T05:41:47.168Z,1.15
2023-02-21T05:44:14.350Z,1.50
2023-02-21T05:46:41.566Z,1.33
2023-02-21T05:49:08.705Z,1.33
2023-02-21T05:51:37.798Z,1.30
2023-02-21T05:54:06.386Z,1.50
2023-02-21T05:56:43.811Z,1.55
2023-02-21T05:59:11.715Z,1.30
2023-02-21T06:01:39.883Z,1.17
2023-02-21T06:04:07.816Z,1.40
2023-02-21T06:06:35.249Z,1.30
2023-02-21T06:09:02.434Z,1.40
2023-02-21T06:11:37.033Z,1.70
2023-02-21T06:14:06.545Z,1.30
2023-02-21T06:16:38.124Z,1.43
2023-02-21T06:19:07.654Z,1.20
2023-02-21T06:21:35.762Z,1.90
2023-02-21T06:24:03.210Z,1.75
2023-02-21T06:26:30.090Z,1.75
2023-02-21T06:28:56.950Z,1.60
2023-02-21T06:31:24.084Z,1.30
2023-02-21T06:33:51.591Z,1.40
2023-02-21T06:36:24.847Z,1.52
2023-02-21T06:38:55.097Z,1.50
2023-02-21T06:41:27.387Z,1.10
2023-02-21T06:43:55.612Z,7.07
2023-02-21T06:46:25.806Z,1.30
2023-02-21T06:48:53.200Z,1.25
2023-02-21T06:51:20.588Z,1.20
2023-02-21T06:53:50.770Z,1.05
2023-02-21T06:56:17.729Z,1.40
2023-02-21T06:58:44.647Z,1.40
2023-02-21T07:01:11.775Z,1.33
2023-02-21T07:03:43.353Z,1.45
2023-02-21T07:06:10.652Z,1.20
2023-02-21T07:08:37.675Z,1.35
2023-02-21T07:11:05.726Z,1.25
2023-02-21T07:13:33.617Z,0.98
2023-02-21T07:16:02.828Z,1.10
2023-02-21T07:18:29.794Z,2.15
2023-02-21T07:20:57.236Z,2.50
2023-02-21T07:23:24.105Z,1.65
2023-02-21T07:25:50.904Z,1.45
2023-02-21T07:28:17.918Z,1.35
2023-02-21T07:30:44.782Z,1.20
2023-02-21T07:33:11.694Z,1.20
2023-02-21T07:35:38.453Z,1.17
2023-02-21T07:38:05.455Z,1.00
2023-02-21T07:40:32.291Z,1.00
2023-02-21T07:42:59.223Z,0.93
2023-02-21T07:45:26.140Z,1.10
2023-02-21T07:47:53.434Z,0.70
2023-02-21T07:50:20.480Z,0.90
2023-02-21T07:52:47.677Z,0.80
2023-02-21T07:55:14.977Z,1.08
2023-02-21T07:57:41.711Z,1.30
2023-02-21T08:00:09.384Z,1.00
2023-02-21T08:02:41.733Z,0.90
2023-02-21T08:05:09.447Z,1.42
2023-02-21T08:07:36.385Z,1.10
2023-02-21T08:10:03.581Z,1.30
2023-02-21T08:12:30.826Z,0.90
2023-02-21T08:14:57.869Z,1.20
2023-02-21T08:17:24.846Z,0.93
2023-02-21T08:19:51.748Z,1.20
2023-02-21T08:22:19.106Z,1.00
2023-02-21T08:24:46.361Z,0.90
2023-02-21T08:27:13.177Z,1.20
2023-02-21T08:29:40.690Z,1.10
2023-02-21T08:32:07.658Z,0.90
2023-02-21T08:34:34.657Z,1.00
2023-02-21T08:37:02.155Z,0.80
2023-02-21T08:39:31.878Z,0.82
2023-02-21T08:41:58.765Z,0.90
2023-02-21T08:44:25.635Z,1.02
2023-02-21T08:46:52.492Z,1.15
2023-02-21T08:49:19.328Z,0.80
2023-02-21T08:51:46.136Z,0.80
2023-02-21T08:54:13.603Z,0.80
2023-02-21T08:56:41.909Z,0.80
2023-02-21T08:59:09.470Z,0.80
2023-02-21T09:01:36.647Z,0.95
2023-02-21T09:04:05.010Z,1.25
2023-02-21T09:06:32.062Z,2.60
2023-02-21T09:08:58.846Z,2.30
2023-02-21T09:11:25.628Z,2.90
2023-02-21T09:13:55.145Z,3.03
2023-02-21T09:16:22.765Z,4.05
2023-02-21T09:19:01.327Z,3.53
2023-02-21T09:21:28.725Z,3.20
2023-02-21T09:26:26.699Z,3.40
2023-02-21T09:28:53.672Z,4.10
2023-02-21T09:31:21.303Z,4.07
2023-02-21T09:33:48.303Z,3.55
2023-02-21T09:36:15.238Z,2.70
2023-02-21T09:38:42.462Z,2.08
2023-02-21T09:41:14.733Z,1.20
2023-02-21T09:43:46.372Z,0.40
2023-02-21T09:46:34.917Z,0.40
2023-02-21T09:49:03.916Z,0.20
2023-02-21T09:51:33.285Z,0.40
2023-02-21T09:54:01.691Z,0.60
2023-02-21T09:56:34.094Z,0.80
2023-02-21T09:59:01.025Z,0.90
2023-02-21T10:01:54.677Z,1.00
2023-02-21T10:04:53.730Z,0.52
2023-02-21T10:07:54.236Z,0.60
2023-02-21T10:10:38.521Z,0.60
2023-02-21T10:13:29.153Z,0.50
2023-02-21T10:16:07.112Z,1.40
2023-02-21T10:18:45.983Z,1.17
2023-02-21T10:21:23.150Z,2.10
2023-02-21T10:23:52.037Z,2.65
2023-02-21T10:26:24.856Z,3.17
2023-02-21T10:28:53.998Z,3.40
2023-02-21T10:31:36.358Z,2.70
2023-02-21T10:34:07.458Z,4.32
2023-02-21T10:36:34.754Z,4.35
2023-02-21T10:39:09.952Z,2.75
2023-02-21T10:41:40.039Z,1.80
2023-02-21T10:44:27.157Z,2.60
2023-02-21T10:47:09.209Z,3.00
2023-02-21T10:49:46.383Z,3.03
2023-02-21T10:52:22.949Z,3.53
2023-02-21T10:55:30.164Z,2.60
2023-02-21T10:58:05.861Z,3.40
2023-02-21T11:00:47.752Z,3.50
2023-02-21T11:03:23.125Z,3.60
2023-02-21T11:05:51.614Z,3.20
2023-02-21T11:08:44.275Z,2.92
2023-02-21T11:11:11.271Z,4.03
2023-02-21T11:13:38.236Z,4.30
2023-02-21T11:16:19.704Z,3.58
2023-02-21T11:18:46.693Z,2.10
2023-02-21T11:21:19.260Z,1.45
2023-02-21T11:24:02.703Z,0.80
2023-02-21T11:26:35.659Z,1.48
2023-02-21T11:29:25.811Z,1.13
2023-02-21T11:31:56.682Z,1.25
2023-02-21T11:34:29.852Z,1.73
2023-02-21T11:37:03.584Z,1.10
2023-02-21T11:39:34.579Z,0.50
2023-02-21T11:42:04.948Z,1.10
2023-02-21T11:44:36.314Z,1.50
2023-02-21T11:47:15.210Z,1.80
2023-02-21T11:50:07.523Z,1.55
2023-02-21T11:52:43.208Z,1.33
2023-02-21T11:55:16.968Z,1.30
2023-02-21T11:58:06.943Z,0.80
2023-02-21T12:00:47.147Z,1.73
2023-02-21T12:03:22.540Z,1.90
2023-02-21T12:06:18.416Z,2.67
2023-02-21T12:08:54.336Z,3.08
2023-02-21T12:11:49.204Z,2.20
2023-02-21T12:14:40.709Z,1.80
2023-02-21T12:17:32.960Z,2.50
2023-02-21T12:20:24.119Z,1.80
2023-02-21T12:23:09.604Z,1.17
2023-02-21T12:25:45.888Z,1.10
2023-02-21T12:28:45.891Z,1.10
2023-02-21T12:31:31.431Z,1.23
2023-02-21T12:34:04.168Z,1.70
2023-02-21T12:36:41.838Z,1.77
2023-02-21T12:39:33.860Z,1.00
2023-02-21T12:42:15.841Z,0.90
2023-02-21T12:44:53.460Z,1.00
2023-02-21T12:47:36.229Z,0.30
2023-02-21T12:50:16.034Z,0.50
2023-02-21T12:53:05.546Z,0.95
2023-02-21T12:56:13.736Z,1.70
2023-02-21T12:59:03.186Z,1.10
2023-02-21T13:01:40.158Z,0.90
2023-02-21T13:04:13.917Z,0.90
2023-02-21T13:07:00.776Z,0.60
2023-02-21T13:09:39.541Z,1.00
2023-02-21T13:12:14.782Z,1.60
2023-02-21T13:15:13.394Z,1.90
2023-02-21T13:17:42.292Z,2.25
2023-02-21T13:20:17.936Z,2.50
2023-02-21T13:23:40.712Z,2.20
2023-02-21T13:26:57.211Z,2.55
2023-02-21T13:29:28.336Z,2.35
2023-02-21T13:32:03.165Z,3.05
2023-02-21T13:34:36.276Z,1.25
2023-02-21T13:37:07.195Z,0.55
2023-02-21T13:39:39.109Z,0.50
2023-02-21T13:42:15.771Z,0.40
2023-02-21T13:44:46.291Z,0.50
2023-02-21T13:47:15.859Z,0.30
2023-02-21T13:49:58.693Z,0.40
2023-02-21T13:52:36.769Z,0.40
2023-02-21T13:55:14.019Z,0.50
2023-02-21T13:57:43.662Z,0.50
2023-02-21T14:00:25.767Z,0.50
2023-02-21T14:03:01.385Z,0.50
2023-02-21T14:05:54.084Z,0.60
2023-02-21T14:08:26.237Z,0.50
2023-02-21T14:10:55.087Z,0.60
2023-02-21T14:13:56.734Z,0.65
2023-02-21T14:16:29.844Z,0.80
2023-02-21T14:19:21.843Z,0.80
2023-02-21T14:21:51.761Z,0.90
2023-02-21T14:24:24.140Z,0.90
2023-02-21T14:27:24.846Z,1.02
2023-02-21T14:30:00.953Z,0.90
2023-02-21T14:32:50.370Z,1.10
2023-02-21T14:35:17.210Z,1.00
2023-02-21T14:38:04.578Z,1.20
2023-02-21T14:40:58.374Z,1.23
2023-02-21T14:43:40.292Z,1.10
2023-02-21T14:46:13.205Z,1.20
2023-02-21T14:49:21.065Z,1.60
2023-02-21T14:52:07.604Z,1.30
2023-02-21T14:54:53.128Z,1.38
2023-02-21T14:57:55.057Z,1.50
2023-02-21T15:00:48.742Z,1.50
2023-02-21T15:03:25.346Z,1.33
2023-02-21T15:06:07.481Z,1.70
2023-02-21T15:08:46.165Z,1.50
2023-02-21T15:11:43.416Z,1.50
2023-02-21T15:14:25.046Z,1.70
2023-02-21T15:16:58.272Z,1.80
2023-02-21T15:19:28.761Z,1.75
2023-02-21T15:22:14.303Z,1.80
2023-02-21T15:24:41.676Z,1.60
2023-02-21T15:27:13.362Z,1.60
2023-02-21T15:29:41.118Z,1.60
2023-02-21T15:32:11.710Z,1.80
2023-02-21T15:34:45.048Z,1.90
2023-02-21T15:37:24.172Z,1.52
2023-02-21T15:39:55.617Z,1.70
2023-02-21T15:42:24.694Z,1.70
2023-02-21T15:45:05.135Z,1.60
2023-02-21T15:50:06.336Z,1.60
2023-02-21T15:52:37.801Z,1.60
2023-02-21T15:55:19.766Z,1.50
2023-02-21T15:58:00.511Z,1.50
2023-02-21T16:00:30.537Z,1.60
2023-02-21T16:03:28.251Z,1.63
2023-02-21T16:06:08.572Z,1.40
2023-02-21T16:11:04.332Z,2.08
2023-02-21T16:13:39.723Z,1.90
2023-02-21T16:16:08.569Z,2.13
2023-02-21T16:18:35.656Z,1.90
2023-02-21T16:21:08.256Z,1.90
2023-02-21T16:23:40.126Z,1.90
2023-02-21T16:26:09.827Z,1.80
2023-02-21T16:28:40.214Z,1.77
2023-02-21T16:31:12.546Z,1.77
2023-02-21T16:33:39.436Z,1.65
2023-02-21T16:36:09.854Z,1.85
2023-02-21T16:41:03.554Z,1.80
2023-02-21T16:43:30.340Z,1.90
2023-02-21T16:45:58.670Z,2.00
2023-02-21T16:48:33.419Z,2.17
2023-02-21T16:51:07.218Z,2.20
2023-02-21T16:53:34.236Z,2.10
2023-02-21T16:56:03.669Z,2.10
2023-02-21T16:58:36.744Z,2.33
2023-02-21T17:01:08.523Z,2.00
2023-02-21T17:03:35.210Z,2.10
2023-02-21T17:06:02.147Z,2.13
2023-02-21T17:08:29.284Z,2.20
2023-02-21T17:10:57.237Z,1.90
2023-02-21T17:13:25.408Z,1.90
2023-02-21T17:15:54.469Z,2.00
2023-02-21T17:18:22.157Z,2.05
2023-02-21T17:20:49.475Z,1.90
2023-02-21T17:23:17.118Z,1.80
2023-02-21T17:25:48.973Z,1.95
2023-02-21T17:28:32.731Z,1.85
2023-02-21T17:30:59.607Z,2.00
2023-02-21T17:33:32.933Z,2.10
2023-02-21T17:36:03.713Z,2.10
2023-02-21T17:38:30.853Z,2.10
2023-02-21T17:40:57.793Z,2.00
2023-02-21T17:43:31.976Z,1.85
2023-02-21T17:45:59.522Z,1.90
2023-02-21T17:48:26.943Z,2.00
2023-02-21T17:50:57.902Z,1.90
2023-02-21T17:53:25.119Z,1.90
2023-02-21T17:55:51.958Z,2.10
2023-02-21T17:58:18.628Z,2.30
2023-02-21T18:00:45.651Z,2.28
2023-02-21T18:03:12.333Z,2.22
2023-02-21T18:05:39.377Z,2.10
2023-02-21T18:08:06.397Z,1.98
2023-02-21T18:10:33.137Z,2.30
2023-02-21T18:12:59.938Z,2.38
2023-02-21T18:15:30.180Z,2.17
2023-02-21T18:18:03.898Z,1.95
2023-02-21T18:20:31.770Z,1.85
2023-02-21T18:22:58.606Z,1.80
2023-02-21T18:25:26.819Z,1.90
2023-02-21T18:27:53.648Z,1.90
2023-02-21T18:30:22.069Z,1.90
2023-02-21T18:32:49.045Z,1.90
2023-02-21T18:35:16.965Z,2.00
2023-02-21T18:37:47.039Z,2.20
2023-02-21T18:40:16.009Z,2.00
2023-02-21T18:42:43.420Z,1.90
2023-02-21T18:45:16.802Z,1.90
2023-02-21T18:47:44.019Z,1.85
2023-02-21T18:50:10.858Z,1.80
2023-02-21T18:52:37.684Z,1.90
2023-02-21T18:55:04.932Z,1.80
2023-02-21T18:57:31.910Z,1.80
2023-02-21T18:59:58.808Z,1.90
2023-02-21T19:02:27.228Z,1.63
2023-02-21T19:04:54.639Z,1.90
2023-02-21T19:07:22.025Z,2.03
2023-02-21T19:09:50.555Z,2.00
2023-02-21T19:12:18.440Z,2.03
2023-02-21T19:14:46.314Z,2.00
2023-02-21T19:17:15.533Z,1.70
2023-02-21T19:19:42.517Z,1.90
2023-02-21T19:22:09.539Z,1.60
2023-02-21T19:24:39.404Z,1.77
2023-02-21T19:27:06.373Z,1.70
2023-02-21T19:29:33.494Z,1.63
2023-02-21T19:32:01.061Z,1.70
2023-02-21T19:34:28.648Z,1.63
2023-02-21T19:36:58.337Z,1.50
2023-02-21T19:39:25.826Z,1.70
2023-02-21T19:41:53.767Z,1.70
2023-02-21T19:44:22.370Z,1.75
2023-02-21T19:46:49.640Z,1.80
2023-02-21T19:49:20.782Z,1.80
2023-02-21T19:51:50.364Z,1.80
2023-02-21T19:54:19.008Z,1.70
2023-02-21T19:56:46.255Z,1.60
2023-02-21T19:59:13.479Z,1.80
2023-02-21T20:01:40.744Z,1.58
2023-02-21T20:04:08.391Z,1.80
2023-02-21T20:06:37.593Z,1.63
2023-02-21T20:09:09.513Z,1.80
2023-02-21T20:11:40.895Z,1.60
2023-02-21T20:14:11.282Z,1.70
2023-02-21T20:19:26.235Z,1.80
2023-02-21T20:21:53.724Z,1.63
2023-02-21T20:24:21.109Z,1.70
2023-02-21T20:26:51.942Z,1.90
2023-02-21T20:29:20.605Z,1.80
2023-02-21T20:31:48.219Z,2.10
2023-02-21T20:34:16.333Z,2.05
2023-02-21T20:36:45.151Z,1.98
2023-02-21T20:39:28.324Z,1.80
2023-02-21T20:41:56.276Z,1.90
2023-02-21T20:44:23.566Z,1.75
2023-02-21T20:46:50.603Z,1.88
2023-02-21T20:49:21.322Z,1.83
2023-02-21T20:51:49.153Z,1.80
2023-02-21T20:54:22.012Z,1.85
2023-02-21T20:56:50.906Z,2.00
2023-02-21T20:59:23.521Z,1.90
2023-02-21T21:01:50.698Z,2.10
2023-02-21T21:04:27.539Z,1.67
2023-02-21T21:07:01.036Z,1.67
2023-02-21T21:12:07.877Z,1.80
2023-02-21T21:14:41.676Z,1.58
2023-02-21T21:17:12.841Z,1.85
2023-02-21T21:19:42.848Z,1.92
2023-02-21T21:22:13.497Z,1.77
2023-02-21T21:24:42.938Z,1.52
2023-02-21T21:27:10.311Z,1.60
2023-02-21T21:29:43.130Z,1.67
2023-02-21T21:32:12.268Z,1.90
2023-02-21T21:35:20.115Z,1.70
2023-02-21T21:38:10.440Z,1.63
2023-02-21T21:40:37.727Z,1.60
2023-02-21T21:43:07.617Z,1.45
2023-02-21T21:45:44.132Z,1.80
2023-02-21T21:48:11.562Z,1.50
2023-02-21T21:50:38.579Z,1.45
2023-02-21T21:53:07.110Z,1.60
2023-02-21T21:55:36.175Z,1.60
2023-02-21T21:58:10.442Z,1.65
2023-02-21T22:00:46.619Z,1.50
2023-02-21T22:03:18.279Z,1.60
2023-02-21T22:05:45.608Z,1.70
2023-02-21T22:08:17.931Z,1.88
2023-02-21T22:10:45.871Z,1.70
2023-02-21T22:13:20.574Z,1.50
2023-02-21T22:15:47.837Z,1.60
2023-02-21T22:18:19.159Z,1.50
2023-02-21T22:20:49.783Z,1.60
2023-02-21T22:23:21.239Z,1.40
2023-02-21T22:25:48.359Z,1.50
2023-02-21T22:28:15.185Z,1.38
2023-02-21T22:30:42.407Z,1.50
2023-02-21T22:33:13.530Z,1.40
2023-02-21T22:35:41.479Z,1.70
2023-02-21T22:38:14.119Z,1.48
2023-02-21T22:40:42.077Z,1.30
2023-02-21T22:43:09.429Z,1.40
2023-02-21T22:45:37.677Z,1.13
2023-02-21T22:48:06.980Z,1.20
2023-02-21T22:50:41.810Z,1.38
2023-02-21T22:53:13.109Z,1.30
2023-02-21T22:55:40.077Z,1.40
2023-02-21T22:58:09.368Z,1.40
2023-02-21T23:00:37.867Z,1.40
2023-02-21T23:03:13.491Z,1.38
2023-02-21T23:05:49.733Z,1.33
2023-02-21T23:08:19.604Z,1.30
2023-02-21T23:10:51.501Z,1.30
2023-02-21T23:13:21.032Z,1.60
2023-02-21T23:15:48.368Z,1.20
2023-02-21T23:18:20.380Z,1.25
2023-02-21T23:21:15.891Z,1.40
2023-02-21T23:23:43.529Z,1.48
2023-02-21T23:26:15.499Z,1.20
2023-02-21T23:28:42.279Z,1.23
2023-02-21T23:31:11.953Z,1.33
2023-02-21T23:33:38.796Z,1.20
2023-02-21T23:36:06.541Z,1.30
2023-02-21T23:38:38.343Z,1.20
2023-02-21T23:41:09.997Z,1.30
2023-02-21T23:43:37.296Z,1.25
2023-02-21T23:46:07.334Z,1.23
2023-02-21T23:48:34.259Z,1.35
2023-02-21T23:51:01.015Z,1.48
2023-02-21T23:53:31.710Z,1.30
2023-02-21T23:56:00.519Z,1.30
2023-02-21T23:58:31.561Z,1.27
